Time;durP1;ratioP1;P1;durP2;ratioP2;P2;SDS_P1;SDS_P2;PMS_P1;PMS_P2;Temp;Humidity;BMP_temperature;BMP_pressure;BME280_temperature;BME280_humidity;BME280_pressure;Samples;Min_cycle;Max_cycle;Signal;HPM_P1;HPM_P2
2022/02/10 00:03:33;;;;;;;13.02;6.28;;;;;;;9.89;90.05;102057.03;4979351;28;20038;-45
2022/02/10 00:06:17;;;;;;;13.10;6.55;;;;;;;9.90;89.83;102056.78;4980902;28;20416;-47
2022/02/10 00:36:35;;;;;;;9.57;5.47;;;;;;;9.86;88.88;102013.91;4993295;28;20046;-43
2022/02/10 00:41:51;;;;;;;9.70;5.32;;;;;;;9.85;88.87;101999.47;4993357;28;20046;-48
2022/02/10 00:44:22;;;;;;;8.80;5.13;;;;;;;9.85;88.67;101998.66;4993153;28;20051;-47
2022/02/10 00:46:50;;;;;;;9.70;5.55;;;;;;;9.86;88.72;102000.31;4993253;28;20054;-51
2022/02/10 00:49:18;;;;;;;7.38;4.90;;;;;;;9.85;88.58;101999.47;4994587;28;20082;-46
2022/02/10 00:51:48;;;;;;;8.50;5.38;;;;;;;9.85;88.87;101994.03;4995083;28;20109;-45
2022/02/10 00:54:22;;;;;;;9.30;5.30;;;;;;;9.87;89.02;101996.53;4975907;28;20094;-45
2022/02/10 00:56:50;;;;;;;8.55;4.93;;;;;;;9.88;88.68;101992.72;4993091;28;20058;-45
2022/02/10 00:59:48;;;;;;;10.38;5.75;;;;;;;9.89;88.61;101988.97;4976027;28;20039;-45
2022/02/10 01:29:48;;;;;;;7.82;5.00;;;;;;;9.85;86.75;101949.66;4947413;28;20046;-45
2022/02/10 01:32:17;;;;;;;7.70;4.88;;;;;;;9.86;86.61;101946.72;4996453;28;20089;-46
2022/02/10 01:34:49;;;;;;;8.43;4.80;;;;;;;9.86;86.93;101938.53;4996198;28;20126;-46
2022/02/10 01:37:19;;;;;;;8.85;4.93;;;;;;;9.85;86.36;101934.16;4995830;28;20121;-45
2022/02/10 01:39:53;;;;;;;8.30;5.28;;;;;;;9.85;86.64;101930.59;4979105;28;20042;-43
2022/02/10 02:04:24;;;;;;;8.05;5.78;;;;;;;9.80;86.50;101899.47;4995782;28;20050;-46
2022/02/10 02:06:54;;;;;;;9.35;5.28;;;;;;;9.79;86.34;101900.53;4978803;28;20050;-44
2022/02/10 02:09:22;;;;;;;8.23;5.65;;;;;;;9.79;86.20;101897.81;4978062;28;20039;-45
2022/02/10 02:11:53;;;;;;;9.57;6.03;;;;;;;9.79;86.67;101891.56;4996281;28;20051;-44
2022/02/10 02:14:22;;;;;;;9.90;5.90;;;;;;;9.78;86.32;101890.72;4994788;28;20097;-45
2022/02/10 02:16:51;;;;;;;9.98;5.60;;;;;;;9.79;86.54;101877.94;4995458;28;20038;-43
2022/02/10 02:19:19;;;;;;;9.05;5.82;;;;;;;9.78;86.67;101874.38;4978477;28;20051;-46
2022/02/10 02:21:47;;;;;;;9.30;6.22;;;;;;;9.79;86.82;101861.63;4994990;28;20058;-45
2022/02/10 02:24:20;;;;;;;8.80;5.68;;;;;;;9.79;87.05;101862.44;4995579;28;20054;-43
2022/02/10 02:26:49;;;;;;;9.18;5.57;;;;;;;9.78;86.91;101847.16;4979179;28;20141;-44
2022/02/10 02:29:44;;;;;;;8.88;6.07;;;;;;;9.77;86.82;101853.69;4978850;28;20127;-42
2022/02/10 02:32:20;;;;;;;10.45;6.13;;;;;;;9.77;87.12;101850.13;4995360;28;20038;-46
2022/02/10 02:35:14;;;;;;;10.57;6.30;;;;;;;9.76;87.04;101849.28;4995018;28;20058;-46
2022/02/10 03:05:27;;;;;;;12.18;7.68;;;;;;;9.72;87.21;101820.09;4994723;28;20065;-48
2022/02/10 03:08:00;;;;;;;11.73;7.53;;;;;;;9.72;87.47;101817.38;4995030;28;20066;-46
2022/02/10 03:13:40;;;;;;;8.82;6.43;;;;;;;9.72;87.49;101815.47;4975052;28;20066;-45
2022/02/10 04:08:11;;;;;;;11.38;7.47;;;;;;;9.63;88.13;101810.63;4993773;28;20042;-46
2022/02/10 04:13:33;;;;;;;12.85;7.90;;;;;;;9.60;88.45;101815.47;4974433;28;20054;-48
2022/02/10 04:16:16;;;;;;;13.10;7.82;;;;;;;9.59;88.44;101821.97;4975273;28;20102;-46
2022/02/10 04:24:29;;;;;;;13.80;8.75;;;;;;;9.56;88.64;101813.47;4993729;28;20049;-47
2022/02/10 04:59:46;;;;;;;13.48;9.02;;;;;;;9.51;88.65;101786.13;4979832;28;20057;-47
2022/02/10 05:34:07;;;;;;;13.77;9.63;;;;;;;9.32;89.03;101761.78;4996205;28;20038;-46
2022/02/10 05:36:38;;;;;;;13.90;9.23;;;;;;;9.31;89.13;101767.47;4978942;28;20049;-46
2022/02/10 05:57:52;;;;;;;18.27;10.25;;;;;;;9.27;89.70;101748.06;4995508;28;20045;-47
2022/02/10 07:47:01;;;;;;;30.00;17.75;;;;;;;8.99;95.92;101816.69;4993076;28;20048;-48
2022/02/10 08:49:37;;;;;;;30.30;20.98;;;;;;;8.86;99.19;101850.34;4993519;28;19922;-49
2022/02/10 08:50:31;;;;;;;30.85;22.30;;;;;;;8.73;100.00;101866.81;4993445;28;19925;-44
2022/02/10 08:59:08;;;;;;;25.30;15.45;;;;;;;8.69;100.00;101879.22;4977274;28;20046;-46
2022/02/10 09:01:38;;;;;;;23.33;15.70;;;;;;;8.70;100.00;101883.59;4993597;28;20050;-46
2022/02/10 10:02:58;;;;;;;7.82;3.85;;;;;;;8.19;98.66;101939.13;4995255;28;20042;-45
2022/02/10 10:13:55;;;;;;;6.82;3.10;;;;;;;8.32;95.18;101958.81;4995246;28;20100;-49
2022/02/10 10:19:06;;;;;;;10.10;3.03;;;;;;;8.36;93.57;101967.31;4988630;28;20042;-46
2022/02/10 10:25:03;;;;;;;9.00;3.35;;;;;;;8.33;93.60;101965.91;4966505;28;20133;-46
2022/02/10 10:27:46;;;;;;;6.53;2.85;;;;;;;8.41;94.55;101970.22;4995889;28;20058;-50
2022/02/10 10:56:30;;;;;;;;;;;;;;;8.46;85.68;101989.38;4995308;28;20046;-47
2022/02/10 12:36:40;;;;;;;11.73;4.15;;;;;;;8.78;79.53;101982.97;4942485;28;20124;-48
2022/02/10 14:14:56;;;;;;;12.90;3.50;;;;;;;8.72;75.66;101965.72;4995649;28;20121;-47
2022/02/10 14:17:37;;;;;;;9.93;3.47;;;;;;;8.73;76.39;101970.94;4995784;28;20057;-48
2022/02/10 14:20:32;;;;;;;12.13;3.28;;;;;;;8.72;77.24;101973.88;4995610;28;20078;-48
2022/02/10 14:25:56;;;;;;;15.15;4.07;;;;;;;8.63;77.72;101961.63;4980510;28;20052;-48
2022/02/10 14:28:26;;;;;;;15.00;4.38;;;;;;;8.61;78.95;101961.03;4995563;28;20097;-44
2022/02/10 14:30:55;;;;;;;11.82;3.58;;;;;;;8.61;79.75;101959.16;4995266;28;20058;-48
2022/02/10 14:33:29;;;;;;;11.55;3.65;;;;;;;8.64;80.08;101957.88;4978122;28;20050;-45
2022/02/10 15:17:19;;;;;;;11.48;3.50;;;;;;;8.38;82.50;101991.56;4994701;28;20137;-43
2022/02/10 15:36:32;;;;;;;10.73;3.65;;;;;;;8.49;82.46;101969.94;4994066;28;20046;-47
2022/02/10 15:55:52;;;;;;;11.00;4.07;;;;;;;8.53;82.94;101987.44;4993728;28;20133;-49
2022/02/10 16:17:03;;;;;;;13.27;4.05;;;;;;;8.41;81.76;101974.84;4980474;28;20338;-45
2022/02/10 16:19:32;;;;;;;12.02;4.05;;;;;;;8.38;81.87;101978.81;4990405;28;20130;-47
2022/02/10 16:22:11;;;;;;;12.52;4.20;;;;;;;8.35;81.52;101984.69;4990173;28;20121;-47
2022/02/10 16:24:49;;;;;;;16.20;4.13;;;;;;;8.33;81.62;101982.19;4974248;28;20891;-46
2022/02/10 16:29:47;;;;;;;18.52;4.43;;;;;;;8.32;82.42;101977.81;4973162;28;20535;-42
2022/02/10 16:32:20;;;;;;;16.27;4.13;;;;;;;8.30;80.68;101981.81;4974107;28;20060;-42
2022/02/10 16:34:53;;;;;;;15.55;4.72;;;;;;;8.25;80.20;101985.22;4994221;28;20575;-42
2022/02/10 16:37:26;;;;;;;11.45;3.97;;;;;;;8.26;79.38;101980.59;4994353;28;20053;-47
2022/02/10 16:39:58;;;;;;;12.85;4.22;;;;;;;8.25;79.29;101974.34;4993770;28;20077;-45
2022/02/10 16:42:31;;;;;;;14.65;5.05;;;;;;;8.24;78.49;101971.84;4993592;28;20038;-46
2022/02/10 16:45:04;;;;;;;13.50;4.20;;;;;;;8.26;78.20;101977.88;4994374;28;20038;-47
2022/02/10 16:47:35;;;;;;;10.27;2.90;;;;;;;8.26;77.31;101981.41;4994168;28;20050;-44
2022/02/10 16:50:08;;;;;;;9.48;3.25;;;;;;;8.27;76.32;101976.81;4994424;28;20042;-46
2022/02/10 16:52:47;;;;;;;11.23;3.40;;;;;;;8.24;76.02;101975.38;4977649;28;20058;-45
2022/02/10 16:55:41;;;;;;;8.35;2.90;;;;;;;8.21;75.27;101975.03;4993789;28;20054;-44
2022/02/10 17:18:21;;;;;;;11.30;3.47;;;;;;;8.21;74.34;101977.72;4914309;29;20054;-44
2022/02/10 17:28:55;;;;;;;12.95;3.55;;;;;;;8.18;72.50;101976.28;4992894;28;19933;-44
2022/02/10 17:32:11;;;;;;;10.10;2.97;;;;;;;8.19;71.94;101980.66;4976146;28;20417;-46
2022/02/10 17:34:25;;;;;;;10.73;3.13;;;;;;;8.17;71.82;101971.06;4985625;28;20413;-46
2022/02/10 17:53:37;;;;;;;9.90;2.80;;;;;;;7.95;72.62;102001.34;4978324;28;19925;-44
2022/02/10 17:56:08;;;;;;;11.10;2.95;;;;;;;7.94;72.56;102009.69;4992810;28;20057;-47
2022/02/10 17:58:37;;;;;;;10.77;3.60;;;;;;;7.94;72.68;102021.41;4993120;28;20058;-47
2022/02/10 18:01:07;;;;;;;11.55;3.50;;;;;;;7.92;72.77;102015.34;4975659;28;20043;-47
2022/02/10 18:03:35;;;;;;;9.82;3.17;;;;;;;7.90;73.90;102021.00;4993006;28;20057;-47
2022/02/10 18:09:13;;;;;;;9.77;3.28;;;;;;;7.92;73.96;102033.53;4975329;28;20053;-48
2022/02/10 18:14:23;;;;;;;12.13;3.20;;;;;;;7.90;74.63;102031.03;4992322;28;20128;-48
2022/02/10 18:16:56;;;;;;;9.23;3.20;;;;;;;7.92;75.23;102034.34;4958056;28;20105;-45
2022/02/10 18:22:28;;;;;;;14.13;3.70;;;;;;;7.96;75.04;102040.16;4972697;28;20047;-48
2022/02/10 18:24:51;;;;;;;11.05;3.30;;;;;;;7.94;75.00;102034.97;4970959;28;20035;-46
2022/02/10 18:27:33;;;;;;;12.65;3.25;;;;;;;7.93;75.33;102036.00;4960932;28;20038;-47
2022/02/10 19:08:18;;;;;;;12.18;3.65;;;;;;;7.74;73.56;102058.69;4991939;28;19932;-46
2022/02/10 19:10:55;;;;;;;13.88;3.40;;;;;;;7.73;73.08;102057.03;4991242;28;20126;-46
2022/02/10 19:13:23;;;;;;;12.20;3.75;;;;;;;7.72;73.93;102058.06;4991636;28;20060;-46
2022/02/10 19:15:54;;;;;;;11.95;3.33;;;;;;;7.73;73.52;102062.44;4991209;28;20452;-47
2022/02/10 19:18:42;;;;;;;13.02;3.63;;;;;;;7.71;73.03;102059.94;4991252;28;20046;-46
2022/02/10 19:21:10;;;;;;;12.18;3.67;;;;;;;7.69;73.02;102064.75;4990851;28;20046;-47
2022/02/10 19:23:38;;;;;;;13.45;3.53;;;;;;;7.67;73.00;102073.13;4973759;28;20046;-45
2022/02/10 19:26:05;;;;;;;13.82;3.80;;;;;;;7.62;72.75;102080.25;4990755;28;20054;-47
2022/02/10 19:28:33;;;;;;;9.25;3.05;;;;;;;7.60;73.71;102074.19;4963191;28;20125;-48
2022/02/10 19:31:02;;;;;;;12.65;3.28;;;;;;;7.60;73.28;102069.63;4991170;28;20046;-45
2022/02/10 19:33:30;;;;;;;11.60;3.28;;;;;;;7.60;73.81;102068.78;4973623;28;20101;-47
2022/02/10 19:35:58;;;;;;;12.00;3.47;;;;;;;7.59;73.52;102073.38;4990907;28;20050;-48
2022/02/10 19:38:30;;;;;;;11.52;3.83;;;;;;;7.56;73.51;102068.38;4991231;28;20046;-47
2022/02/10 19:40:58;;;;;;;10.85;3.20;;;;;;;7.54;73.03;102069.66;4973908;28;20052;-49
2022/02/10 19:43:44;;;;;;;11.55;3.70;;;;;;;7.45;73.84;102063.63;4990979;28;20129;-46
2022/02/10 19:46:11;;;;;;;9.82;3.20;;;;;;;7.39;73.15;102059.09;4990368;28;20042;-48
2022/02/10 19:48:40;;;;;;;15.27;3.75;;;;;;;7.38;74.00;102065.56;4973732;28;20050;-46
2022/02/10 19:51:08;;;;;;;10.77;3.53;;;;;;;7.39;73.69;102075.38;4990421;28;20105;-47
2022/02/10 19:53:36;;;;;;;13.40;3.67;;;;;;;7.40;74.38;102085.97;4990740;28;20112;-48
2022/02/10 19:56:04;;;;;;;10.48;3.75;;;;;;;7.44;73.77;102080.97;4990853;28;20054;-49
2022/02/10 19:58:32;;;;;;;9.93;3.83;;;;;;;7.47;74.58;102080.53;4991086;28;20055;-47
2022/02/10 20:01:01;;;;;;;12.18;3.42;;;;;;;7.45;73.68;102088.88;4990799;28;20057;-46
2022/02/10 20:03:34;;;;;;;8.63;3.22;;;;;;;7.42;74.31;102088.47;4991069;28;20200;-50
2022/02/10 20:06:03;;;;;;;12.32;3.03;;;;;;;7.44;74.52;102083.69;4990457;28;20125;-48
2022/02/10 20:08:31;;;;;;;14.88;3.78;;;;;;;7.45;74.23;102079.91;4972401;28;20133;-46
2022/02/10 20:10:59;;;;;;;11.45;4.07;;;;;;;7.46;74.04;102065.31;4973352;28;20042;-45
2022/02/10 20:13:29;;;;;;;13.55;3.80;;;;;;;7.45;73.99;102066.34;4957273;28;20053;-47
2022/02/10 20:16:00;;;;;;;13.20;3.60;;;;;;;7.46;74.11;102076.16;4990000;28;20108;-46
2022/02/10 20:18:29;;;;;;;9.52;3.42;;;;;;;7.46;74.59;102073.47;4973470;28;20073;-46
2022/02/10 20:20:57;;;;;;;9.07;3.45;;;;;;;7.48;74.89;102076.78;4990370;28;20078;-45
2022/02/10 20:23:26;;;;;;;12.85;3.97;;;;;;;7.49;74.78;102075.72;4990589;28;20142;-43
2022/02/10 20:26:09;;;;;;;11.15;3.58;;;;;;;7.50;74.58;102073.84;4958595;28;20073;-46
2022/02/10 20:28:37;;;;;;;12.65;3.50;;;;;;;7.52;74.48;102074.47;4990621;28;20455;-46
2022/02/10 20:31:07;;;;;;;10.25;3.17;;;;;;;7.52;74.31;102069.88;4990336;28;20057;-45
2022/02/10 20:33:36;;;;;;;11.45;3.38;;;;;;;7.54;73.97;102075.06;4973412;28;20061;-49
2022/02/10 20:36:05;;;;;;;14.45;4.03;;;;;;;7.52;73.81;102082.59;4989874;28;20124;-45
2022/02/10 20:38:37;;;;;;;9.95;3.40;;;;;;;7.48;74.09;102087.63;4990459;28;20057;-42
2022/02/10 20:41:08;;;;;;;12.02;3.80;;;;;;;7.46;74.43;102089.72;4990123;28;20048;-45
2022/02/10 20:43:37;;;;;;;10.63;3.55;;;;;;;7.42;75.07;102088.47;4990202;28;20467;-48
2022/02/10 20:46:08;;;;;;;9.52;3.90;;;;;;;7.37;74.83;102081.00;4971549;28;20576;-51
2022/02/10 20:48:38;;;;;;;14.82;4.10;;;;;;;7.34;75.24;102086.03;4989822;28;20054;-43
2022/02/10 20:51:09;;;;;;;10.65;3.50;;;;;;;7.25;75.21;102088.97;4990636;28;20046;-47
2022/02/10 20:53:45;;;;;;;15.30;4.05;;;;;;;7.28;76.24;102087.69;4989700;28;20055;-47
2022/02/10 20:56:14;;;;;;;11.35;3.50;;;;;;;7.25;75.52;102097.09;4989525;28;20542;-47
2022/02/10 20:58:42;;;;;;;11.75;3.63;;;;;;;7.28;75.88;102095.00;4990338;28;20042;-47
2022/02/10 21:01:13;;;;;;;10.32;3.70;;;;;;;7.28;74.64;102081.47;4972645;28;20065;-46
2022/02/10 21:03:43;;;;;;;9.55;3.50;;;;;;;7.30;74.70;102079.38;4973292;28;20074;-45
2022/02/10 21:08:59;;;;;;;12.57;3.28;;;;;;;7.30;73.49;102082.06;4990343;28;20069;-46
2022/02/10 21:11:29;;;;;;;10.32;3.22;;;;;;;7.32;73.79;102077.28;4989815;28;20132;-47
2022/02/10 21:14:06;;;;;;;10.68;4.00;;;;;;;7.33;74.88;102073.50;4990053;28;20051;-48
2022/02/10 21:16:40;;;;;;;10.13;3.33;;;;;;;7.34;74.69;102080.59;4989504;28;20058;-47
2022/02/10 21:19:11;;;;;;;7.68;3.28;;;;;;;7.29;73.26;102083.09;4990999;28;20046;-49
2022/02/10 21:21:43;;;;;;;10.77;2.80;;;;;;;7.27;72.61;102085.22;4993322;28;20046;-49
2022/02/10 21:24:14;;;;;;;9.77;3.08;;;;;;;7.23;72.62;102082.91;4993550;28;20511;-45
2022/02/10 21:27:03;;;;;;;7.43;3.00;;;;;;;7.20;72.28;102096.91;4993459;28;20108;-49
2022/02/10 21:29:30;;;;;;;6.80;2.50;;;;;;;7.18;71.84;102082.75;4993258;28;20046;-50
2022/02/10 21:32:02;;;;;;;8.95;2.80;;;;;;;7.17;71.93;102086.50;4993419;28;20141;-47
2022/02/10 21:34:34;;;;;;;6.07;2.63;;;;;;;7.16;71.89;102084.81;4975699;28;20050;-47
2022/02/10 21:37:07;;;;;;;5.45;2.55;;;;;;;7.19;71.65;102083.56;4993327;28;20054;-46
2022/02/10 21:47:43;;;;;;;7.93;3.08;;;;;;;7.18;72.47;102081.91;4993385;28;20062;-45
2022/02/10 21:54:31;;;;;;;9.10;3.13;;;;;;;7.17;73.90;102091.09;4993085;28;20054;-46
2022/02/10 22:16:51;;;;;;;11.32;3.85;;;;;;;7.17;77.56;102097.34;4981396;28;20057;-46
2022/02/10 22:19:22;;;;;;;13.05;4.10;;;;;;;7.15;78.35;102096.72;4995910;28;20161;-46
2022/02/10 22:21:55;;;;;;;11.65;4.22;;;;;;;7.14;79.21;102097.75;4995292;28;20077;-46
2022/02/10 22:24:24;;;;;;;13.02;4.10;;;;;;;7.14;78.93;102103.19;4995665;28;20078;-46
2022/02/10 22:26:53;;;;;;;9.13;3.83;;;;;;;7.12;79.61;102099.00;4995771;28;20053;-46
2022/02/10 22:29:32;;;;;;;13.32;4.10;;;;;;;7.11;79.60;102095.47;4995594;28;20126;-47
2022/02/10 22:34:52;;;;;;;12.25;4.38;;;;;;;7.06;80.75;102095.28;4995735;28;20050;-47
2022/02/10 22:37:21;;;;;;;12.65;4.30;;;;;;;7.04;80.57;102091.97;4995430;28;20042;-45
2022/02/10 22:39:51;;;;;;;10.77;3.95;;;;;;;7.00;81.14;102085.31;4995025;28;20046;-46
2022/02/10 22:42:33;;;;;;;14.18;3.92;;;;;;;6.97;80.97;102091.97;4995625;28;20051;-46
2022/02/10 22:45:00;;;;;;;11.50;4.45;;;;;;;6.97;81.19;102088.44;4995274;28;20126;-46
2022/02/10 22:47:29;;;;;;;14.13;4.15;;;;;;;6.96;81.17;102089.50;4995726;28;20038;-45
2022/02/10 22:49:58;;;;;;;11.52;3.92;;;;;;;6.95;81.54;102085.09;4978550;28;20125;-44
2022/02/10 22:52:25;;;;;;;10.68;3.80;;;;;;;6.95;81.48;102085.09;4994427;28;20046;-45
2022/02/10 22:54:53;;;;;;;9.02;3.70;;;;;;;6.93;81.15;102095.34;4995123;28;20066;-48
2022/02/10 22:57:25;;;;;;;10.02;4.07;;;;;;;6.90;81.68;102084.91;4978248;28;20057;-45
2022/02/10 22:59:53;;;;;;;12.90;4.50;;;;;;;6.86;81.99;102089.09;4994863;28;20066;-47
2022/02/10 23:02:21;;;;;;;11.07;3.60;;;;;;;6.86;82.16;102089.09;4994913;28;20089;-44
2022/02/10 23:04:48;;;;;;;12.25;3.97;;;;;;;6.85;82.00;102093.66;4995176;28;20208;-49
2022/02/10 23:07:17;;;;;;;11.85;3.90;;;;;;;6.85;82.22;102093.66;4978104;28;20049;-47
2022/02/10 23:12:38;;;;;;;12.57;4.13;;;;;;;6.80;82.24;102097.00;4959384;28;20081;-46
2022/02/10 23:15:06;;;;;;;10.13;4.20;;;;;;;6.80;82.04;102101.59;4995394;28;20053;-47
2022/02/10 23:17:36;;;;;;;14.90;4.22;;;;;;;6.79;81.98;102103.47;4994662;28;20046;-44
2022/02/10 23:20:05;;;;;;;12.57;3.80;;;;;;;6.73;81.88;102095.38;4992706;28;20076;-47
2022/02/10 23:22:36;;;;;;;10.50;3.88;;;;;;;6.73;82.64;102104.31;4994374;28;20050;-44
2022/02/10 23:25:04;;;;;;;11.65;3.60;;;;;;;6.73;82.27;102101.59;4994540;28;20074;-46
2022/02/10 23:27:31;;;;;;;13.00;3.92;;;;;;;6.74;82.08;102102.47;4994662;28;20046;-47
2022/02/10 23:29:59;;;;;;;13.55;4.03;;;;;;;6.71;81.86;102100.16;4976946;28;20117;-47
2022/02/10 23:32:28;;;;;;;11.85;3.78;;;;;;;6.69;82.19;102105.81;4994507;28;20125;-45
2022/02/10 23:34:58;;;;;;;14.25;3.70;;;;;;;6.69;82.45;102100.38;4994269;28;20046;-44
2022/02/10 23:37:29;;;;;;;12.05;3.88;;;;;;;6.70;82.15;102107.44;4994258;28;20042;-45
2022/02/10 23:39:59;;;;;;;11.57;3.80;;;;;;;6.68;82.17;102109.53;4994323;28;20130;-48
2022/02/10 23:42:31;;;;;;;14.27;4.18;;;;;;;6.67;82.66;102110.59;4994562;28;20049;-46
2022/02/10 23:45:09;;;;;;;10.65;4.20;;;;;;;6.66;82.66;102103.50;4994375;28;20054;-47
2022/02/10 23:47:43;;;;;;;13.45;4.63;;;;;;;6.64;82.86;102102.91;4994027;28;20042;-47
2022/02/10 23:50:16;;;;;;;10.20;4.53;;;;;;;6.61;82.83;102111.41;4976911;28;20069;-45
2022/02/10 23:52:46;;;;;;;10.48;4.50;;;;;;;6.56;83.55;102111.22;4993871;28;20058;-47
2022/02/10 23:55:21;;;;;;;10.38;4.43;;;;;;;6.55;83.40;102114.97;4994036;28;20065;-46
